Time;durP1;ratioP1;P1;durP2;ratioP2;P2;SDS_P1;SDS_P2;PMS_P1;PMS_P2;Temp;Humidity;BMP_temperature;BMP_pressure;BME280_temperature;BME280_humidity;BME280_pressure;Samples;Min_cycle;Max_cycle;Signal;HPM_P1;HPM_P2
2021/11/01 00:01:49;;;;;;;24.50;19.77;;;;;;;9.84;84.88;99433.25;5029205;28;20045;-86
2021/11/01 00:04:17;;;;;;;27.10;19.35;;;;;;;9.83;85.07;99428.97;5012187;28;20029;-86
2021/11/01 00:06:45;;;;;;;27.52;20.65;;;;;;;9.78;85.44;99414.50;5062786;28;20048;-88
2021/11/01 00:09:12;;;;;;;27.63;20.92;;;;;;;9.76;85.24;99429.53;5035083;28;20402;-86
2021/11/01 00:11:43;;;;;;;30.67;20.17;;;;;;;9.74;85.41;99426.19;5038403;28;20072;-86
2021/11/01 00:14:10;;;;;;;27.45;20.50;;;;;;;9.68;85.87;99429.25;5033150;28;20021;-85
2021/11/01 00:16:38;;;;;;;27.80;20.42;;;;;;;9.68;86.03;99426.63;5033959;28;20075;-85
2021/11/01 00:19:05;;;;;;;28.88;21.40;;;;;;;9.60;86.57;99425.44;5046745;28;20042;-86
2021/11/01 00:21:36;;;;;;;26.73;20.92;;;;;;;9.60;86.58;99433.31;5038466;28;20064;-85
2021/11/01 00:24:04;;;;;;;30.70;21.20;;;;;;;9.58;86.98;99419.44;5050592;28;20127;-85
2021/11/01 00:26:31;;;;;;;26.30;20.95;;;;;;;9.56;nan;99410.00;5057875;28;20029;-84
2021/11/01 00:29:03;;;;;;;26.38;20.55;;;;;;;9.52;87.69;99408.56;5065617;28;20068;-86
2021/11/01 00:31:31;;;;;;;26.70;19.60;;;;;;;9.49;87.91;99411.41;5064372;28;20097;-85
2021/11/01 00:34:04;;;;;;;29.10;20.98;;;;;;;9.44;87.69;99405.66;5064098;28;20021;-86
2021/11/01 00:36:32;;;;;;;28.15;19.88;;;;;;;9.42;87.82;99408.41;5031354;28;20067;-84
2021/11/01 00:38:59;;;;;;;30.77;21.65;;;;;;;9.43;88.25;99393.47;5028484;28;20036;-85
2021/11/01 00:41:27;;;;;;;27.27;21.17;;;;;;;9.42;88.77;99405.75;5049249;28;20048;-85
2021/11/01 00:43:55;;;;;;;30.17;21.60;;;;;;;9.44;87.96;99397.75;5040886;28;20238;-85
2021/11/01 00:46:26;;;;;;;26.25;21.02;;;;;;;9.38;88.39;99397.28;5043440;28;20045;-84
2021/11/01 00:48:54;;;;;;;33.25;22.67;;;;;;;9.34;89.06;99400.22;5026205;28;20041;-85
2021/11/01 00:51:21;;;;;;;28.33;21.50;;;;;;;9.31;88.97;99403.06;5060129;28;20105;-85
2021/11/01 00:53:48;;;;;;;28.60;21.50;;;;;;;9.32;88.94;99400.34;5029904;28;20262;-85
2021/11/01 00:56:17;;;;;;;29.35;21.48;;;;;;;9.28;89.27;99400.69;5045342;28;20141;-85
2021/11/01 00:58:44;;;;;;;30.05;21.70;;;;;;;9.29;89.36;99397.13;5023900;28;20092;-86
2021/11/01 01:01:14;;;;;;;31.30;22.08;;;;;;;9.28;89.39;99398.06;5027002;28;20049;-85
2021/11/01 01:03:43;;;;;;;31.77;20.88;;;;;;;9.26;89.82;99392.06;5027348;28;20027;-86
2021/11/01 01:06:12;;;;;;;27.25;21.48;;;;;;;9.27;89.55;99393.75;5021957;28;20112;-85
2021/11/01 01:08:40;;;;;;;32.55;20.33;;;;;;;9.26;89.56;99387.66;5069367;28;20093;-85
2021/11/01 01:11:08;;;;;;;28.77;22.30;;;;;;;9.24;90.17;99383.47;5046540;28;20068;-86
2021/11/01 01:13:37;;;;;;;28.40;22.90;;;;;;;9.26;89.46;99378.94;5039297;28;20112;-87
2021/11/01 01:16:21;;;;;;;27.63;21.75;;;;;;;9.26;89.64;99361.41;5026224;28;20056;-85
2021/11/01 01:18:52;;;;;;;31.05;22.15;;;;;;;9.25;89.71;99364.97;5009582;28;20055;-86
2021/11/01 01:24:05;;;;;;;29.95;21.42;;;;;;;9.24;89.80;99357.22;5038446;28;20037;-85
2021/11/01 01:26:33;;;;;;;29.83;22.05;;;;;;;9.21;90.30;99358.28;5052432;28;20045;-85
2021/11/01 01:29:00;;;;;;;29.77;22.05;;;;;;;9.23;90.55;99355.53;5027148;28;20060;-86
2021/11/01 01:31:28;;;;;;;28.67;20.85;;;;;;;9.24;90.45;99351.97;5020633;28;20064;-86
2021/11/01 01:33:55;;;;;;;28.33;21.58;;;;;;;9.17;90.33;99355.97;5060313;28;20028;-86
2021/11/01 01:36:23;;;;;;;28.42;22.23;;;;;;;9.17;90.59;99345.47;5043983;28;20047;-85
2021/11/01 01:38:50;;;;;;;30.58;21.60;;;;;;;9.19;90.79;99344.44;5021060;28;20113;-86
2021/11/01 01:41:27;;;;;;;32.78;23.15;;;;;;;9.10;90.72;99351.19;5047092;28;20543;-85
2021/11/01 01:43:57;;;;;;;31.58;20.73;;;;;;;9.08;91.05;99345.19;5051824;28;20021;-85
2021/11/01 01:46:26;;;;;;;29.30;21.23;;;;;;;9.11;90.75;99341.53;5042955;28;20060;-85
2021/11/01 01:48:54;;;;;;;31.40;22.30;;;;;;;9.07;91.43;99337.44;5062575;28;20039;-85
2021/11/01 01:51:26;;;;;;;27.25;21.75;;;;;;;9.07;91.38;99335.66;5028877;28;20128;-85
2021/11/01 01:53:53;;;;;;;27.58;22.05;;;;;;;9.12;91.28;99328.28;5056174;28;20079;-83
2021/11/01 01:56:23;;;;;;;31.38;22.83;;;;;;;9.10;91.21;99332.81;5039738;28;20221;-85
2021/11/01 01:58:54;;;;;;;33.97;23.05;;;;;;;9.07;91.40;99329.56;5040203;28;20143;-85
2021/11/01 02:01:22;;;;;;;30.05;22.05;;;;;;;9.08;91.18;99326.81;5042369;28;20136;-86
2021/11/01 02:03:52;;;;;;;27.17;20.65;;;;;;;9.12;91.04;99319.56;5008993;28;20075;-85
2021/11/01 02:06:45;;;;;;;29.05;20.95;;;;;;;9.08;91.01;99326.81;5030372;28;20070;-84
2021/11/01 02:09:18;;;;;;;29.92;21.70;;;;;;;9.06;91.18;99320.03;5020722;28;20072;-84
2021/11/01 02:12:02;;;;;;;32.33;21.88;;;;;;;9.04;91.93;99324.53;5024827;28;20052;-84
2021/11/01 02:14:38;;;;;;;28.10;21.52;;;;;;;8.97;91.97;99324.16;5050693;28;20061;-83
2021/11/01 02:17:06;;;;;;;34.47;23.33;;;;;;;8.98;92.24;99325.00;5024621;28;20091;-85
2021/11/01 02:19:45;;;;;;;36.97;23.45;;;;;;;8.92;92.10;99307.91;5037858;28;20055;-84
2021/11/01 02:22:34;;;;;;;28.38;21.80;;;;;;;8.98;91.86;99307.47;5022640;28;20041;-84
2021/11/01 02:25:12;;;;;;;30.77;23.27;;;;;;;8.93;92.12;99306.97;5026046;28;20048;-85
2021/11/01 02:27:41;;;;;;;29.77;22.65;;;;;;;8.92;92.33;99301.84;5024067;28;20532;-84
2021/11/01 02:30:10;;;;;;;32.17;22.10;;;;;;;8.89;92.30;99302.88;5021004;28;20033;-85
2021/11/01 02:32:42;;;;;;;30.17;21.92;;;;;;;8.91;92.59;99306.22;5031674;28;20144;-84
2021/11/01 02:35:11;;;;;;;29.15;23.45;;;;;;;8.95;92.53;99293.72;5022629;28;20053;-86
2021/11/01 02:37:40;;;;;;;29.80;23.17;;;;;;;9.01;92.18;99293.28;5010833;28;20057;-84
2021/11/01 02:40:10;;;;;;;34.33;23.08;;;;;;;9.01;91.71;99283.63;5029320;28;20063;-86
2021/11/01 02:42:39;;;;;;;35.10;22.38;;;;;;;8.98;91.93;99283.84;5043894;28;20056;-85
2021/11/01 02:45:09;;;;;;;30.45;22.63;;;;;;;8.96;92.22;99275.25;5044474;28;20045;-84
2021/11/01 02:47:36;;;;;;;33.30;22.60;;;;;;;9.01;92.33;99277.53;5058864;28;20148;-84
2021/11/01 02:50:07;;;;;;;34.90;23.13;;;;;;;8.95;92.66;99273.56;5023085;28;20215;-85
2021/11/01 02:52:35;;;;;;;27.80;22.33;;;;;;;8.95;92.65;99283.22;5044747;28;20053;-85
2021/11/01 02:55:05;;;;;;;31.20;22.95;;;;;;;8.92;92.97;99279.03;5027875;28;20094;-85
2021/11/01 02:57:33;;;;;;;28.58;21.75;;;;;;;8.88;92.99;99273.19;5032159;28;20041;-84
2021/11/01 03:00:02;;;;;;;30.02;22.65;;;;;;;8.88;93.19;99264.47;5045019;28;20044;-86
2021/11/01 03:02:29;;;;;;;28.50;22.27;;;;;;;8.90;93.30;99274.84;5054807;28;20145;-84
2021/11/01 03:04:57;;;;;;;34.10;22.80;;;;;;;8.85;93.09;99269.94;5052562;28;20028;-84
2021/11/01 03:07:24;;;;;;;30.98;23.60;;;;;;;8.85;93.46;99267.31;5045555;28;20083;-83
2021/11/01 03:09:51;;;;;;;35.10;23.98;;;;;;;8.77;93.20;99262.63;5030156;28;20064;-84
2021/11/01 03:12:20;;;;;;;33.80;24.27;;;;;;;8.80;93.88;99264.19;5031926;28;20118;-84
2021/11/01 03:14:50;;;;;;;34.50;23.80;;;;;;;8.80;93.40;99258.94;5031154;28;20041;-85
2021/11/01 03:17:20;;;;;;;31.60;23.85;;;;;;;8.82;93.57;99263.09;5051621;28;20079;-84
2021/11/01 03:20:07;;;;;;;34.53;23.95;;;;;;;8.77;94.29;99262.63;5059071;28;20057;-83
2021/11/01 03:22:41;;;;;;;33.88;24.17;;;;;;;8.77;93.73;99269.66;5054585;28;20057;-84
2021/11/01 03:25:27;;;;;;;29.75;22.98;;;;;;;8.76;94.36;99271.44;5057904;28;20059;-84
2021/11/01 03:27:56;;;;;;;31.85;23.25;;;;;;;8.68;94.10;99259.84;5033448;28;20117;-85
2021/11/01 03:30:24;;;;;;;39.65;24.17;;;;;;;8.61;94.37;99257.66;5048574;28;20035;-86
2021/11/01 03:32:53;;;;;;;31.80;23.35;;;;;;;8.66;94.69;99259.13;5038011;28;20037;-85
2021/11/01 03:35:22;;;;;;;35.72;23.83;;;;;;;8.71;94.89;99268.31;5048803;28;20155;-84
2021/11/01 03:37:52;;;;;;;32.22;23.65;;;;;;;8.56;95.30;99258.94;5048485;28;20047;-84
2021/11/01 03:40:21;;;;;;;36.80;23.95;;;;;;;8.66;94.68;99256.50;5045129;28;20060;-84
2021/11/01 03:42:52;;;;;;;32.45;23.48;;;;;;;8.61;95.00;99262.06;5011191;28;20041;-84
2021/11/01 03:45:20;;;;;;;30.38;23.13;;;;;;;8.61;94.68;99257.66;5045300;28;20045;-85
2021/11/01 03:47:49;;;;;;;32.53;24.60;;;;;;;8.60;94.82;99252.50;5061417;28;20052;-85
2021/11/01 03:50:31;;;;;;;33.50;23.77;;;;;;;8.57;95.93;99255.38;5032938;28;20037;-85
2021/11/01 03:53:01;;;;;;;32.70;23.77;;;;;;;8.58;94.95;99246.56;5047951;28;20037;-85
2021/11/01 03:55:29;;;;;;;34.97;25.13;;;;;;;8.53;96.04;99254.75;5016816;28;20108;-85
2021/11/01 03:57:58;;;;;;;31.63;24.90;;;;;;;8.53;95.44;99253.91;5061619;28;20065;-85
2021/11/01 04:00:31;;;;;;;31.75;24.20;;;;;;;8.58;96.07;99263.13;5040215;28;20032;-85
2021/11/01 04:02:59;;;;;;;34.10;24.55;;;;;;;8.53;95.24;99262.63;5031852;28;20398;-85
2021/11/01 04:05:30;;;;;;;31.88;25.00;;;;;;;8.53;95.79;99267.03;5024962;28;20053;-86
2021/11/01 04:07:57;;;;;;;34.60;25.42;;;;;;;8.48;96.01;99259.50;5052428;28;20059;-86
2021/11/01 04:10:24;;;;;;;31.27;23.15;;;;;;;8.48;95.98;99259.50;5030895;28;20095;-86
2021/11/01 04:12:52;;;;;;;33.05;24.30;;;;;;;8.44;96.65;99271.16;5051658;28;20113;-84
2021/11/01 04:15:23;;;;;;;30.27;23.10;;;;;;;8.40;96.30;99272.31;5056756;28;20151;-85
2021/11/01 04:17:56;;;;;;;31.77;24.20;;;;;;;8.44;96.36;99272.94;5053397;28;20109;-84
2021/11/01 04:20:29;;;;;;;36.05;25.77;;;;;;;8.31;96.92;99276.41;5044214;28;20053;-84
2021/11/01 04:23:01;;;;;;;33.67;24.80;;;;;;;8.31;97.02;99286.06;5071288;28;20053;-85
2021/11/01 04:25:30;;;;;;;34.47;25.88;;;;;;;8.23;97.54;99281.34;5052143;28;20080;-85
2021/11/01 04:27:59;;;;;;;37.55;26.02;;;;;;;8.24;98.00;99293.53;5025970;28;20053;-86
2021/11/01 04:30:30;;;;;;;32.33;26.08;;;;;;;8.25;98.16;99281.25;5025049;28;20051;-85
2021/11/01 04:33:02;;;;;;;33.47;24.98;;;;;;;8.23;98.10;99275.25;5057472;28;20068;-84
2021/11/01 04:35:34;;;;;;;41.38;26.08;;;;;;;8.29;97.38;99280.09;5053242;28;20085;-85
2021/11/01 04:38:20;;;;;;;32.72;23.65;;;;;;;8.28;97.53;99281.00;5060991;28;20044;-86
2021/11/01 04:41:08;;;;;;;34.55;25.05;;;;;;;8.20;98.14;99286.00;5061135;28;20060;-85
2021/11/01 04:54:24;;;;;;;32.65;23.38;;;;;;;8.06;99.42;99286.94;5044361;28;20041;-86
2021/11/01 04:56:51;;;;;;;35.05;26.23;;;;;;;8.03;100.00;99288.00;5015747;28;20049;-86
2021/11/01 04:59:20;;;;;;;33.58;25.00;;;;;;;8.10;99.33;99284.00;5033402;28;20021;-85
2021/11/01 05:01:52;;;;;;;35.83;25.77;;;;;;;8.16;99.35;99290.59;5035884;28;20049;-86
2021/11/01 05:04:26;;;;;;;34.75;25.17;;;;;;;8.06;99.95;99292.16;5053038;28;20033;-88
2021/11/01 05:06:59;;;;;;;33.83;25.20;;;;;;;8.08;99.84;99303.41;5044007;28;20040;-85
2021/11/01 05:09:31;;;;;;;37.47;26.50;;;;;;;8.09;99.74;99299.81;5022534;23;20061;-65
2021/11/01 05:12:06;;;;;;;33.85;26.15;;;;;;;8.16;98.89;99300.25;4987360;28;20041;-66
2021/11/01 05:14:41;;;;;;;32.75;25.85;;;;;;;8.07;99.87;99307.81;4999108;28;20144;-66
2021/11/01 05:20:06;;;;;;;32.05;25.25;;;;;;;8.08;99.53;99312.09;5002845;28;20050;-65
2021/11/01 05:25:32;;;;;;;38.67;26.63;;;;;;;8.05;100.00;99308.84;4999435;28;20058;-65
2021/11/01 05:33:04;;;;;;;37.92;25.88;;;;;;;8.36;99.37;99313.66;5004428;28;20058;-66
2021/11/01 05:35:32;;;;;;;34.13;25.00;;;;;;;8.41;99.01;99310.69;4985094;28;20136;-66
2021/11/01 05:37:59;;;;;;;34.40;25.77;;;;;;;8.54;98.27;99308.03;5005120;28;20076;-70
2021/11/01 05:40:26;;;;;;;34.25;25.38;;;;;;;8.58;97.47;99305.09;5001514;28;20045;-65
2021/11/01 05:42:54;;;;;;;33.80;25.15;;;;;;;8.65;96.94;99297.63;4989753;28;20050;-66
2021/11/01 05:45:21;;;;;;;33.55;24.92;;;;;;;8.75;96.18;99306.50;5004444;28;20061;-65
2021/11/01 05:47:56;;;;;;;35.65;26.92;;;;;;;8.79;96.58;99309.75;5006937;28;20228;-66
2021/11/01 05:50:29;;;;;;;30.27;24.70;;;;;;;8.86;95.35;99300.47;4991996;28;20045;-65
2021/11/01 05:52:59;;;;;;;37.88;26.27;;;;;;;9.00;94.38;99300.28;5005033;28;20071;-65
2021/11/01 05:55:38;;;;;;;32.90;25.45;;;;;;;9.05;93.77;99313.06;4981506;28;20054;-66
2021/11/01 05:58:26;;;;;;;35.17;25.50;;;;;;;9.11;93.76;99300.34;5006161;28;20113;-66
2021/11/01 06:03:44;;;;;;;32.60;25.30;;;;;;;9.17;93.57;99300.84;4999829;28;20053;-66
2021/11/01 06:09:05;;;;;;;35.70;25.63;;;;;;;9.38;91.55;99302.72;4985216;28;20046;-65
2021/11/01 06:14:18;;;;;;;36.88;24.67;;;;;;;9.54;90.79;99325.19;5003565;28;20136;-67
2021/11/01 06:16:46;;;;;;;34.33;25.10;;;;;;;9.58;90.26;99331.88;5008352;28;20057;-66
2021/11/01 06:19:13;;;;;;;33.95;23.95;;;;;;;9.63;90.60;99335.00;4990490;28;20061;-66
2021/11/01 06:21:42;;;;;;;33.78;24.35;;;;;;;9.66;89.81;99336.56;5008937;28;20420;-66
2021/11/01 06:24:27;;;;;;;35.10;25.00;;;;;;;9.60;89.90;99348.41;5005172;28;20065;-66
2021/11/01 06:26:54;;;;;;;30.02;24.33;;;;;;;9.59;89.71;99351.94;4991365;28;20061;-66
2021/11/01 06:29:28;;;;;;;35.50;25.15;;;;;;;9.69;89.36;99362.63;4989487;28;20061;-66
2021/11/01 06:32:09;;;;;;;32.95;24.40;;;;;;;9.73;89.36;99361.44;5007923;28;20058;-67
2021/11/01 06:39:57;;;;;;;33.15;25.27;;;;;;;9.81;88.41;99352.00;4991791;28;20057;-68
2021/11/01 06:42:38;;;;;;;37.72;24.98;;;;;;;9.87;87.91;99348.94;5010291;28;20050;-66
2021/11/01 06:50:59;;;;;;;38.45;24.45;;;;;;;10.20;86.46;99365.69;5005333;28;20061;-67
2021/11/01 06:53:47;;;;;;;34.72;23.50;;;;;;;10.30;85.78;99364.03;4988665;28;20972;-65
2021/11/01 06:56:37;;;;;;;36.03;25.60;;;;;;;10.26;85.35;99378.38;5009106;28;20057;-64
2021/11/01 07:16:21;;;;;;;34.70;25.65;;;;;;;10.56;84.97;99419.91;5006708;28;20735;-65
2021/11/01 07:19:01;;;;;;;35.85;24.70;;;;;;;10.72;84.14;99418.72;4974036;28;20573;-67
2021/11/01 07:21:43;;;;;;;37.30;25.13;;;;;;;10.77;84.03;99417.38;5008867;28;20048;-65
2021/11/01 08:24:54;;;;;;;35.80;25.05;;;;;;;11.37;81.96;99481.09;4992656;28;20749;-65
2021/11/01 08:28:00;;;;;;;35.33;26.50;;;;;;;11.43;81.85;99474.47;5006875;28;20534;-66
2021/11/01 08:34:19;;;;;;;39.53;26.20;;;;;;;11.49;81.75;99484.56;5003338;28;20041;-66
2021/11/01 08:38:43;;;;;;;32.45;24.80;;;;;;;11.70;81.09;99517.06;5005292;28;20444;-66
2021/11/01 08:41:34;;;;;;;38.08;24.60;;;;;;;11.67;81.92;99509.41;5006305;28;20480;-65
2021/11/01 08:44:28;;;;;;;33.72;25.63;;;;;;;11.94;80.52;99493.16;4993909;28;20041;-65
2021/11/01 09:06:38;;;;;;;36.03;25.05;;;;;;;12.99;74.52;99519.50;5003996;28;20129;-66
2021/11/01 09:12:47;;;;;;;41.20;26.33;;;;;;;13.02;75.23;99530.66;5005618;28;20400;-66
2021/11/01 09:21:00;;;;;;;37.00;24.00;;;;;;;12.72;75.73;99538.56;4988209;28;20057;-66
2021/11/01 09:26:21;;;;;;;29.52;22.65;;;;;;;12.72;75.79;99539.38;4994717;28;20403;-67
2021/11/01 09:29:08;;;;;;;30.83;22.90;;;;;;;12.80;75.50;99542.22;5005130;28;20148;-67
2021/11/01 09:37:25;;;;;;;31.10;23.27;;;;;;;12.70;75.71;99549.25;5003108;28;20100;-65
2021/11/01 09:42:47;;;;;;;34.63;21.50;;;;;;;12.78;75.56;99553.88;5005435;28;20519;-65
2021/11/01 09:45:16;;;;;;;33.93;21.43;;;;;;;12.53;76.33;99558.59;5004550;28;20072;-65
2021/11/01 09:47:44;;;;;;;30.42;21.33;;;;;;;12.75;76.09;99560.25;4990398;28;20480;-65
2021/11/01 09:50:16;;;;;;;31.20;21.88;;;;;;;12.89;75.81;99556.44;5007704;28;20079;-67
2021/11/01 09:52:45;;;;;;;32.53;21.42;;;;;;;12.92;75.50;99559.66;5012476;28;20054;-66
2021/11/01 10:01:05;;;;;;;30.40;19.60;;;;;;;13.29;73.89;99553.03;5006991;28;19935;-66
2021/11/01 10:03:35;;;;;;;28.85;20.95;;;;;;;13.43;73.63;99557.94;5009536;28;20054;-66
2021/11/01 10:06:03;;;;;;;26.52;19.50;;;;;;;13.41;73.83;99550.13;5006946;28;20077;-66
2021/11/01 10:08:31;;;;;;;34.00;20.40;;;;;;;13.42;73.36;99543.91;5009907;28;20065;-66
2021/11/01 10:10:59;;;;;;;28.55;20.23;;;;;;;13.45;73.54;99534.00;5008165;28;20062;-65
2021/11/01 10:13:27;;;;;;;24.85;19.25;;;;;;;13.50;72.58;99529.97;4992976;28;20608;-66
2021/11/01 10:18:52;;;;;;;28.83;19.00;;;;;;;13.33;73.75;99534.13;4970412;28;20045;-65
2021/11/01 10:21:19;;;;;;;29.25;19.38;;;;;;;13.23;75.21;99535.88;5008232;28;20056;-65
2021/11/01 10:23:54;;;;;;;29.98;20.23;;;;;;;13.10;77.74;99528.19;5005995;28;20073;-65
2021/11/01 10:26:29;;;;;;;25.92;18.60;;;;;;;13.18;78.20;99525.69;5006683;28;20058;-66
2021/11/01 10:29:06;;;;;;;29.85;19.05;;;;;;;13.22;79.16;99525.44;5006792;28;20599;-65
2021/11/01 10:31:44;;;;;;;29.98;20.02;;;;;;;13.10;79.63;99528.19;4995394;28;20476;-66
2021/11/01 10:34:13;;;;;;;30.40;20.38;;;;;;;12.95;82.77;99531.28;5006287;28;20069;-65
2021/11/01 10:36:43;;;;;;;32.15;21.23;;;;;;;13.02;83.33;99530.66;5012063;28;20045;-66
2021/11/01 10:39:15;;;;;;;26.92;19.92;;;;;;;13.03;84.23;99539.41;5005740;28;20403;-65
2021/11/01 10:41:54;;;;;;;34.45;20.35;;;;;;;13.18;85.47;99530.13;5011127;28;20129;-66
2021/11/01 10:44:44;;;;;;;25.45;19.55;;;;;;;13.17;86.68;99533.75;5007841;28;20064;-66
2021/11/01 10:59:09;;;;;;;28.77;18.17;;;;;;;13.91;81.54;99554.53;4992022;28;19921;-66
2021/11/01 11:13:00;;;;;;;;;;;;;;;14.13;77.15;99553.44;5006645;28;19949;-66
2021/11/01 11:15:29;;;;;;;20.85;14.75;;;;;;;14.00;76.11;99556.34;5002940;28;20394;-66
2021/11/01 11:18:45;;;;;;;19.23;14.32;;;;;;;13.92;77.47;99554.44;5007116;28;20106;-65
2021/11/01 11:21:33;;;;;;;21.13;14.05;;;;;;;13.86;77.68;99548.84;5004887;28;20098;-67
2021/11/01 11:26:43;;;;;;;20.10;13.48;;;;;;;13.97;78.16;99554.00;5006796;28;20049;-65
2021/11/01 11:32:26;;;;;;;23.70;14.15;;;;;;;13.83;77.21;99554.41;5008012;28;20046;-66
2021/11/01 11:38:23;;;;;;;21.83;13.82;;;;;;;13.96;78.02;99562.94;5006735;28;20076;-66
2021/11/01 11:41:07;;;;;;;23.73;13.38;;;;;;;14.00;78.43;99566.94;5006881;28;20068;-64
2021/11/01 11:43:45;;;;;;;23.88;14.13;;;;;;;13.79;79.02;99569.72;5006790;28;20053;-65
2021/11/01 11:49:08;;;;;;;26.15;13.98;;;;;;;13.77;79.00;99578.75;5004845;28;20428;-65
2021/11/01 11:51:39;;;;;;;19.17;13.57;;;;;;;13.83;79.17;99567.66;4969398;28;20057;-65
2021/11/01 11:54:08;;;;;;;25.45;14.38;;;;;;;13.72;79.68;99557.16;4987413;28;20046;-67
2021/11/01 11:56:39;;;;;;;29.38;15.00;;;;;;;13.77;79.18;99560.25;5006087;28;20499;-66
2021/11/01 11:59:12;;;;;;;26.35;15.70;;;;;;;13.74;79.38;99553.44;5005997;28;20353;-66
2021/11/01 12:01:43;;;;;;;23.80;15.15;;;;;;;13.56;80.29;99550.59;5016980;28;20377;-65
2021/11/01 12:04:22;;;;;;;24.90;15.57;;;;;;;13.54;80.54;99549.06;4989997;28;20038;-65
2021/11/01 12:07:02;;;;;;;22.50;15.50;;;;;;;13.52;80.46;99549.22;5011001;28;20058;-67
2021/11/01 12:09:45;;;;;;;24.48;15.60;;;;;;;13.62;80.06;99541.28;5005668;28;20222;-66
2021/11/01 12:12:40;;;;;;;26.75;14.75;;;;;;;13.51;81.41;99536.97;4988983;28;20153;-64
2021/11/01 12:17:54;;;;;;;24.88;16.05;;;;;;;13.15;84.20;99538.34;5007690;28;20045;-65
2021/11/01 12:20:22;;;;;;;28.60;17.08;;;;;;;13.38;83.39;99539.84;4999529;28;20053;-64
2021/11/01 12:22:51;;;;;;;28.17;16.77;;;;;;;13.28;84.08;99530.19;5016768;28;20065;-64
2021/11/01 12:25:21;;;;;;;20.25;14.13;;;;;;;13.35;82.95;99523.41;5006403;28;20050;-65
2021/11/01 12:28:01;;;;;;;23.08;15.85;;;;;;;13.40;83.50;99524.66;5004580;28;20060;-65
2021/11/01 12:30:39;;;;;;;23.13;16.13;;;;;;;13.15;85.02;99541.00;5005032;28;20133;-65
2021/11/01 12:33:09;;;;;;;25.02;17.08;;;;;;;13.13;85.91;99533.19;5001029;28;20433;-65
2021/11/01 12:35:47;;;;;;;27.90;15.57;;;;;;;13.13;86.33;99540.28;5005128;28;20081;-67
2021/11/01 12:38:20;;;;;;;28.38;17.60;;;;;;;12.83;88.10;99544.59;5004190;28;20166;-66
2021/11/01 12:40:53;;;;;;;29.05;19.00;;;;;;;12.83;88.48;99541.09;5005553;28;20068;-64
2021/11/01 12:43:47;;;;;;;20.38;16.45;;;;;;;12.72;89.06;99531.47;5006693;28;20925;-66
2021/11/01 12:47:02;;;;;;;24.40;17.08;;;;;;;12.96;88.38;99532.97;5007639;28;20107;-65
2021/11/01 12:49:39;;;;;;;24.52;16.23;;;;;;;13.12;87.59;99534.16;5003245;28;20131;-66
2021/11/01 12:57:43;;;;;;;;;;;;;;;13.11;90.05;99540.41;5006259;28;20064;-65
2021/11/01 13:00:14;;;;;;;25.30;15.50;;;;;;;13.03;90.59;99548.16;5000845;28;20316;-65
2021/11/01 13:02:44;;;;;;;24.40;15.50;;;;;;;13.00;91.36;99550.22;5005555;28;20046;-64
2021/11/01 13:05:25;;;;;;;20.60;14.73;;;;;;;12.91;91.57;99546.56;5004614;28;20041;-65
2021/11/01 13:07:57;;;;;;;17.92;13.65;;;;;;;12.71;93.90;99558.84;5006101;28;20053;-68
2021/11/01 13:10:55;;;;;;;21.50;14.20;;;;;;;12.64;95.26;99563.78;5005550;28;20611;-66
2021/11/01 13:19:06;;;;;;;19.52;13.65;;;;;;;12.49;97.01;99554.53;5005426;28;20639;-64
2021/11/01 13:21:48;;;;;;;22.85;14.63;;;;;;;12.51;96.92;99557.03;5006415;28;20145;-64
2021/11/01 13:24:18;;;;;;;18.17;13.63;;;;;;;12.55;96.03;99559.28;4984261;28;20108;-65
2021/11/01 13:37:34;;;;;;;20.10;11.68;;;;;;;12.46;96.64;99549.50;5002432;28;20057;-65
2021/11/01 13:40:07;;;;;;;14.13;10.70;;;;;;;12.48;97.11;99550.22;5006327;28;20053;-65
2021/11/01 13:42:36;;;;;;;15.55;10.90;;;;;;;12.54;96.30;99554.97;5007496;28;20050;-66
2021/11/01 13:45:08;;;;;;;17.20;11.05;;;;;;;12.60;96.05;99546.53;5005749;28;20182;-65
2021/11/01 13:47:43;;;;;;;15.35;10.77;;;;;;;12.48;96.76;99547.59;5008391;28;20046;-66
2021/11/01 13:50:10;;;;;;;18.08;9.95;;;;;;;12.37;97.32;99550.28;5005764;28;20520;-66
2021/11/01 13:52:41;;;;;;;15.27;9.35;;;;;;;12.45;96.38;99547.00;5007076;28;20045;-65
2021/11/01 13:57:50;;;;;;;12.87;8.17;;;;;;;12.12;97.04;99548.84;5008913;28;20053;-65
2021/11/01 14:03:08;;;;;;;15.43;8.43;;;;;;;12.23;98.35;99538.22;5013239;28;20411;-66
2021/11/01 14:11:24;;;;;;;;;;;;;;;11.88;99.39;99541.13;5004300;28;20057;-68
2021/11/01 14:19:18;;;;;;;9.35;5.22;;;;;;;11.52;100.00;99545.72;5006744;28;20051;-64
2021/11/01 14:30:25;;;;;;;9.93;5.32;;;;;;;11.60;100.00;99553.03;4982887;28;20069;-65
2021/11/01 14:36:14;;;;;;;15.73;5.80;;;;;;;11.31;100.00;99545.66;5003579;28;20176;-65
2021/11/01 15:00:57;;;;;;;;;;;;;;;10.81;100.00;99576.78;5002936;28;20487;-66
2021/11/01 15:07:02;;;;;;;12.40;5.80;;;;;;;10.89;100.00;99578.81;5005971;28;20057;-66
2021/11/01 15:15:31;;;;;;;10.30;5.30;;;;;;;10.68;100.00;99581.31;4906429;29;20066;-65
2021/11/01 15:18:11;;;;;;;13.45;4.43;;;;;;;10.60;100.00;99579.25;4893759;29;20044;-66
2021/11/01 15:27:28;;;;;;;7.35;4.60;;;;;;;10.54;100.00;99582.34;5008673;28;20054;-67
2021/11/01 15:38:23;;;;;;;6.95;3.92;;;;;;;10.87;100.00;99583.38;5008873;28;20074;-66
2021/11/01 16:15:21;;;;;;;7.63;4.55;;;;;;;10.85;100.00;99582.63;5007982;28;20046;-67
2021/11/01 16:19:16;;;;;;;16.88;6.63;;;;;;;10.81;100.00;99589.94;5002424;28;20056;-68
2021/11/01 16:21:44;;;;;;;13.88;6.13;;;;;;;10.82;100.00;99596.88;5005916;28;20049;-68
2021/11/01 16:24:12;;;;;;;10.10;5.53;;;;;;;10.86;100.00;99593.06;5006485;28;20057;-67
2021/11/01 16:26:40;;;;;;;11.30;5.07;;;;;;;10.85;100.00;99603.69;5007987;28;20057;-67
2021/11/01 16:29:10;;;;;;;9.35;5.10;;;;;;;10.81;100.00;99599.66;4995792;28;20054;-66
2021/11/01 16:31:51;;;;;;;9.30;4.97;;;;;;;10.79;100.00;99602.38;5005503;28;20520;-65
2021/11/01 16:34:27;;;;;;;9.98;5.57;;;;;;;10.80;100.00;99603.22;4987954;28;20524;-65
2021/11/01 16:39:26;;;;;;;6.78;4.63;;;;;;;10.81;100.00;99605.75;5004206;28;20061;-67
2021/11/01 16:41:53;;;;;;;11.50;6.10;;;;;;;10.84;100.00;99602.03;5008536;28;20042;-68
2021/11/01 16:44:27;;;;;;;8.88;4.60;;;;;;;10.81;100.00;99594.38;4997360;28;20058;-69
2021/11/01 16:46:56;;;;;;;8.50;4.85;;;;;;;10.73;100.00;99596.75;5004655;28;20060;-67
2021/11/01 16:49:25;;;;;;;8.02;4.75;;;;;;;10.76;100.00;99601.75;4988512;28;20072;-66
2021/11/01 16:51:53;;;;;;;8.50;4.45;;;;;;;10.77;100.00;99595.56;5005479;28;20461;-67
2021/11/01 16:54:24;;;;;;;10.10;5.03;;;;;;;10.72;100.00;99589.81;4988314;28;20471;-65
2021/11/01 16:57:17;;;;;;;9.13;4.70;;;;;;;10.75;100.00;99590.41;4992525;28;20068;-66
2021/11/01 17:04:51;;;;;;;11.18;4.65;;;;;;;10.69;100.00;99590.03;5001865;28;20039;-66
2021/11/01 17:10:23;;;;;;;12.35;5.85;;;;;;;10.81;100.00;99595.22;5003524;28;20278;-65
2021/11/01 17:24:06;;;;;;;;;;;;;;;10.59;100.00;99590.72;5005689;28;19921;-64
2021/11/01 17:26:59;;;;;;;15.40;6.35;;;;;;;10.57;100.00;99595.25;4991678;28;19929;-66
2021/11/01 18:37:02;;;;;;;8.30;4.88;;;;;;;10.53;100.00;99592.97;5008440;28;20419;-70
2021/11/01 18:39:42;;;;;;;8.13;5.13;;;;;;;10.47;100.00;99596.06;5005299;28;20421;-69
2021/11/01 18:53:04;;;;;;;8.65;4.53;;;;;;;10.30;100.00;99598.16;5007585;28;20065;-66
2021/11/01 18:55:32;;;;;;;7.47;4.33;;;;;;;10.34;100.00;99596.97;4990032;28;20112;-69
2021/11/01 18:58:01;;;;;;;7.15;3.60;;;;;;;10.29;100.00;99587.75;5006038;28;20077;-69
2021/11/01 19:00:31;;;;;;;9.45;4.63;;;;;;;10.27;98.88;99594.94;5004935;28;20038;-68
2021/11/01 19:02:59;;;;;;;9.38;4.15;;;;;;;10.31;98.10;99601.63;4992229;28;20038;-65
2021/11/01 20:09:36;;;;;;;;;;;;;;;10.17;98.52;99609.66;4991391;28;20053;-68
2021/11/01 20:15:02;;;;;;;7.72;4.13;;;;;;;10.20;99.73;99612.06;4981423;28;20495;-67
2021/11/01 21:27:28;;;;;;;7.47;4.88;;;;;;;9.68;100.00;99566.78;4998006;28;20137;-66
2021/11/01 21:29:55;;;;;;;7.40;4.90;;;;;;;9.62;100.00;99573.28;5005668;28;20052;-66
2021/11/01 21:32:23;;;;;;;7.43;4.60;;;;;;;9.67;100.00;99569.50;5011538;28;20080;-67
2021/11/01 21:34:58;;;;;;;5.55;3.75;;;;;;;9.63;100.00;99574.13;5005594;28;20584;-66